Time;durP1;ratioP1;P1;durP2;ratioP2;P2;SDS_P1;SDS_P2;PMS_P1;PMS_P2;Temp;Humidity;BMP_temperature;BMP_pressure;BME280_temperature;BME280_humidity;BME280_pressure;Samples;Min_cycle;Max_cycle;Signal;HPM_P1;HPM_P2
2024/01/31 00:00:38;;;;;;;3.88;0.45;;;;;;;-146.25;100.00;52579.06;2105280;28;33147;-63
2024/01/31 00:01:40;;;;;;;3.63;0.30;;;;;;;-146.25;100.00;52560.81;2105950;28;21112;-63
2024/01/31 00:02:42;;;;;;;5.25;1.02;;;;;;;-146.25;100.00;52550.69;2105261;28;37228;-64
2024/01/31 00:03:45;;;;;;;4.85;0.40;;;;;;;-146.25;100.00;52558.78;2105217;28;32248;-64
2024/01/31 00:04:49;;;;;;;5.38;0.47;;;;;;;-146.25;100.00;52564.88;2105153;28;33226;-64
2024/01/31 00:05:50;;;;;;;4.65;0.40;;;;;;;-146.25;100.00;52579.06;2096316;28;37376;-64
2024/01/31 00:06:53;;;;;;;5.32;0.57;;;;;;;-146.25;100.00;52560.81;2096618;28;36775;-64
2024/01/31 00:07:55;;;;;;;2.30;0.40;;;;;;;-146.25;100.00;52570.97;2105418;28;36121;-64
2024/01/31 00:08:57;;;;;;;4.63;0.30;;;;;;;-146.25;100.00;52570.97;2105347;28;36564;-64
2024/01/31 00:10:01;;;;;;;3.05;0.50;;;;;;;-146.25;100.00;52530.41;2104995;28;34277;-63
2024/01/31 00:11:03;;;;;;;5.40;0.40;;;;;;;-146.25;100.00;52548.66;2104329;28;36072;-67
2024/01/31 00:12:05;;;;;;;7.53;0.77;;;;;;;-146.25;100.00;52552.72;2104864;28;30211;-64
2024/01/31 00:13:07;;;;;;;4.30;0.35;;;;;;;-146.25;100.00;52575.00;2105172;28;32395;-63
2024/01/31 00:14:10;;;;;;;3.05;0.40;;;;;;;-146.25;100.00;52534.47;2104919;28;36696;-63
2024/01/31 00:15:13;;;;;;;6.10;0.60;;;;;;;-146.25;100.00;52554.75;2105328;28;28441;-63
2024/01/31 00:16:14;;;;;;;6.57;0.60;;;;;;;-146.25;100.00;52585.16;2105233;28;32317;-64
2024/01/31 00:17:16;;;;;;;4.78;0.50;;;;;;;-146.25;100.00;52581.09;2106065;28;20146;-64
2024/01/31 00:18:18;;;;;;;4.78;0.43;;;;;;;-146.25;100.00;52558.78;2105017;28;34827;-63
2024/01/31 00:19:20;;;;;;;6.28;0.68;;;;;;;-146.25;100.00;52601.38;2105474;28;35348;-63
2024/01/31 00:20:22;;;;;;;5.70;0.82;;;;;;;-146.25;100.00;52577.03;2105769;28;20044;-63
2024/01/31 00:21:24;;;;;;;6.53;0.57;;;;;;;-146.25;100.00;52570.97;2104670;28;37626;-63
2024/01/31 00:22:28;;;;;;;3.70;0.47;;;;;;;-146.25;100.00;52530.41;2105541;28;20033;-64
2024/01/31 00:23:30;;;;;;;4.82;0.57;;;;;;;-146.25;100.00;52564.88;2105321;28;37390;-64
2024/01/31 00:24:32;;;;;;;3.08;0.40;;;;;;;-146.25;100.00;52540.53;2105997;28;20044;-62
2024/01/31 00:25:34;;;;;;;4.85;0.40;;;;;;;-146.25;100.00;52540.53;2104918;28;32721;-64
2024/01/31 00:26:36;;;;;;;6.78;0.30;;;;;;;-146.25;100.00;52595.28;2105112;28;30477;-64
2024/01/31 00:27:38;;;;;;;4.85;0.50;;;;;;;-146.25;100.00;52585.16;2106328;28;20086;-64
2024/01/31 00:28:39;;;;;;;6.28;0.47;;;;;;;-146.25;100.00;52591.25;2105422;28;37549;-64
2024/01/31 00:29:41;;;;;;;7.80;1.00;;;;;;;-146.25;100.00;52548.66;2104927;28;34898;-64
2024/01/31 00:30:44;;;;;;;4.55;0.30;;;;;;;-146.25;100.00;52552.72;2105729;28;20044;-64
2024/01/31 00:31:46;;;;;;;5.68;0.70;;;;;;;-146.25;100.00;52554.75;2105099;28;34253;-64
2024/01/31 00:32:48;;;;;;;5.70;0.40;;;;;;;-146.25;100.00;52566.91;2105027;28;33226;-64
2024/01/31 00:33:50;;;;;;;3.90;0.30;;;;;;;-146.25;100.00;52621.66;2105871;28;20037;-64
2024/01/31 00:34:54;;;;;;;3.33;0.30;;;;;;;-146.25;100.00;52566.91;2105167;28;38667;-64
2024/01/31 00:35:55;;;;;;;4.57;0.35;;;;;;;-146.25;100.00;52577.03;2104963;28;34993;-64
2024/01/31 00:36:57;;;;;;;7.15;0.52;;;;;;;-146.25;100.00;52615.56;2104166;28;33174;-64
2024/01/31 00:38:00;;;;;;;5.85;0.22;;;;;;;-146.25;100.00;52546.63;2105189;28;30927;-64
2024/01/31 00:39:02;;;;;;;4.78;0.20;;;;;;;-146.25;100.00;52593.25;2105621;28;20080;-64
2024/01/31 00:40:09;;;;;;;6.53;0.20;;;;;;;-146.25;100.00;52575.00;2104647;28;35768;-64
2024/01/31 00:41:11;;;;;;;3.35;0.20;;;;;;;-146.25;100.00;52556.75;2105336;28;32271;-65
2024/01/31 00:42:14;;;;;;;5.13;0.43;;;;;;;-146.25;100.00;52581.09;2104615;28;33584;-64
2024/01/31 00:43:16;;;;;;;5.20;0.20;;;;;;;-146.25;100.00;52562.84;2105192;28;34838;-63
2024/01/31 00:44:18;;;;;;;6.60;0.30;;;;;;;-146.25;100.00;52562.84;2104248;28;35016;-64
2024/01/31 00:45:19;;;;;;;7.07;0.30;;;;;;;-146.25;100.00;52564.88;2105033;28;35067;-64
2024/01/31 00:46:21;;;;;;;4.70;0.40;;;;;;;-146.25;100.00;52566.91;2105238;28;34001;-65
2024/01/31 00:47:23;;;;;;;3.97;0.20;;;;;;;-146.25;100.00;52556.75;2105520;28;20166;-64
2024/01/31 00:48:25;;;;;;;7.68;0.30;;;;;;;-146.25;100.00;52566.91;2105033;28;37989;-64
2024/01/31 00:49:27;;;;;;;6.97;0.40;;;;;;;-146.25;100.00;52573.00;2105237;28;31287;-64
2024/01/31 00:50:29;;;;;;;6.70;0.30;;;;;;;-146.25;100.00;52554.75;2105291;28;20033;-64
2024/01/31 00:51:30;;;;;;;7.95;0.20;;;;;;;-146.25;100.00;52583.13;2105754;28;32939;-64
2024/01/31 00:52:34;;;;;;;5.43;0.30;;;;;;;-146.25;100.00;52575.00;2105094;28;32666;-64
2024/01/31 00:53:39;;;;;;;5.93;0.28;;;;;;;-146.25;100.00;52514.19;2105641;28;20040;-63
2024/01/31 00:54:41;;;;;;;6.43;0.20;;;;;;;-146.25;100.00;52575.00;2096168;28;34559;-63
2024/01/31 00:55:44;;;;;;;5.15;0.20;;;;;;;-146.25;100.00;52597.31;2096462;28;33899;-64
2024/01/31 00:56:46;;;;;;;4.85;0.40;;;;;;;-146.25;100.00;52548.66;2105354;28;20033;-62
2024/01/31 00:57:50;;;;;;;9.02;0.43;;;;;;;-146.25;100.00;52605.44;2104830;28;35537;-64
2024/01/31 00:58:52;;;;;;;6.57;0.52;;;;;;;-146.25;100.00;52591.25;2105014;28;35093;-63
2024/01/31 00:59:53;;;;;;;6.30;0.30;;;;;;;-146.25;100.00;52570.97;2105549;28;20167;-63
2024/01/31 01:00:55;;;;;;;5.15;0.38;;;;;;;-146.25;100.00;52554.75;2105168;28;31790;-63
2024/01/31 01:01:57;;;;;;;7.28;0.60;;;;;;;-146.25;100.00;52552.72;2105053;28;33059;-63
2024/01/31 01:02:59;;;;;;;6.95;0.40;;;;;;;-146.25;100.00;52568.94;2104796;28;32943;-63
2024/01/31 01:04:00;;;;;;;6.38;0.35;;;;;;;-146.25;100.00;52560.81;2105100;28;36701;-64
2024/01/31 01:05:03;;;;;;;6.07;0.30;;;;;;;-146.25;100.00;52548.66;2104870;28;32255;-64
2024/01/31 01:06:05;;;;;;;7.35;0.40;;;;;;;-146.25;100.00;52577.03;2105212;28;35050;-63
2024/01/31 01:07:06;;;;;;;5.10;0.40;;;;;;;-146.25;100.00;52581.09;2105060;28;35179;-63
2024/01/31 01:08:11;;;;;;;5.60;0.40;;;;;;;-146.25;100.00;52587.19;2104428;28;38039;-63
2024/01/31 01:09:12;;;;;;;8.23;0.30;;;;;;;-146.25;100.00;52568.94;2104689;28;35188;-63
2024/01/31 01:10:15;;;;;;;5.47;0.40;;;;;;;-146.25;100.00;52611.50;2104893;28;31072;-63
2024/01/31 01:11:17;;;;;;;5.88;0.28;;;;;;;-146.25;100.00;52568.94;2096250;28;20740;-63
2024/01/31 01:12:19;;;;;;;4.70;0.30;;;;;;;-146.25;100.00;52560.81;2096618;28;20064;-63
2024/01/31 01:13:21;;;;;;;6.55;0.47;;;;;;;-146.25;100.00;52579.06;2105396;28;39707;-63
2024/01/31 01:14:23;;;;;;;3.97;0.40;;;;;;;-146.25;100.00;52583.13;2104695;28;35491;-64
2024/01/31 01:15:25;;;;;;;6.05;0.30;;;;;;;-146.25;100.00;52566.91;2104787;28;33233;-63
2024/01/31 01:16:26;;;;;;;6.53;0.30;;;;;;;-146.25;100.00;52564.88;2104933;28;34423;-63
2024/01/31 01:17:28;;;;;;;6.15;0.40;;;;;;;-146.25;100.00;52599.34;2105060;28;20147;-64
2024/01/31 01:18:30;;;;;;;4.57;0.30;;;;;;;-146.25;100.00;52591.25;2105127;28;34199;-63
2024/01/31 01:19:32;;;;;;;7.75;0.50;;;;;;;-146.25;100.00;52558.78;2104701;28;36245;-64
2024/01/31 01:20:34;;;;;;;6.53;0.35;;;;;;;-146.25;100.00;52562.84;2105514;28;20106;-64
2024/01/31 01:21:36;;;;;;;4.72;0.35;;;;;;;-146.25;100.00;52546.63;2104678;28;36811;-63
2024/01/31 01:22:38;;;;;;;7.97;0.40;;;;;;;-146.25;100.00;52554.75;2104578;28;37495;-63
2024/01/31 01:23:40;;;;;;;4.85;0.35;;;;;;;-146.25;100.00;52579.06;2105551;28;20039;-63
2024/01/31 01:24:42;;;;;;;3.80;0.50;;;;;;;-146.25;100.00;52532.44;2105494;28;20930;-62
2024/01/31 01:25:44;;;;;;;7.25;0.40;;;;;;;-146.25;100.00;52577.03;2104444;28;35425;-63
2024/01/31 01:26:46;;;;;;;6.00;0.30;;;;;;;-146.25;100.00;52562.84;2104785;28;35741;-63
2024/01/31 01:27:53;;;;;;;6.72;0.60;;;;;;;-146.25;100.00;52579.06;2104343;28;37759;-64
2024/01/31 01:28:55;;;;;;;4.47;0.40;;;;;;;-146.25;100.00;52528.38;2104850;28;36687;-65
2024/01/31 01:29:57;;;;;;;8.10;0.50;;;;;;;-146.25;100.00;52585.16;2105274;28;20051;-64
2024/01/31 01:30:59;;;;;;;10.25;0.63;;;;;;;-146.25;100.00;52554.75;2104610;28;34483;-64
2024/01/31 01:32:00;;;;;;;8.07;0.50;;;;;;;-146.25;100.00;52591.25;2104868;28;34630;-63
2024/01/31 01:33:05;;;;;;;9.10;0.40;;;;;;;-146.25;100.00;52577.03;2105133;28;20159;-62
2024/01/31 01:34:07;;;;;;;10.27;0.70;;;;;;;-146.25;100.00;52581.09;2104427;28;34112;-63
2024/01/31 01:35:08;;;;;;;6.53;0.50;;;;;;;-146.25;100.00;52538.53;2104728;28;34455;-63
2024/01/31 01:36:10;;;;;;;8.25;0.73;;;;;;;-146.25;100.00;52558.78;2105588;28;20032;-62
2024/01/31 01:37:12;;;;;;;9.63;0.60;;;;;;;-146.25;100.00;52583.13;2104874;28;33158;-64
2024/01/31 01:38:14;;;;;;;12.68;0.85;;;;;;;-146.25;100.00;52621.66;2104483;28;34809;-63
2024/01/31 01:39:16;;;;;;;6.25;0.30;;;;;;;-146.25;100.00;52591.25;2105008;28;33273;-63
2024/01/31 01:40:17;;;;;;;8.75;0.82;;;;;;;-146.25;100.00;52568.94;2104621;28;36037;-63
2024/01/31 01:41:19;;;;;;;4.18;0.47;;;;;;;-146.25;100.00;52556.75;2104821;28;32675;-62
2024/01/31 01:42:21;;;;;;;7.93;1.00;;;;;;;-146.25;100.00;52595.28;2104555;28;28425;-64
2024/01/31 01:43:25;;;;;;;5.88;0.40;;;;;;;-146.25;100.00;52597.31;2104655;28;35453;-64
2024/01/31 01:44:33;;;;;;;8.05;0.52;;;;;;;-146.25;100.00;52577.03;2104911;28;20047;-64
2024/01/31 01:45:35;;;;;;;6.82;0.55;;;;;;;-146.25;100.00;52544.59;2095741;28;36167;-63
2024/01/31 01:46:37;;;;;;;5.35;0.40;;;;;;;-146.25;100.00;52566.91;2096233;28;33788;-64
2024/01/31 01:47:50;;;;;;;6.18;0.75;;;;;;;-146.25;100.00;52562.84;2095763;28;27982;-64
2024/01/31 01:48:52;;;;;;;9.95;0.63;;;;;;;-146.25;100.00;52562.84;2097636;28;37486;-64
2024/01/31 01:49:55;;;;;;;9.65;0.70;;;;;;;-146.25;100.00;52530.41;2104455;28;34210;-64
2024/01/31 01:50:57;;;;;;;5.22;0.70;;;;;;;-146.25;100.00;52589.22;2095692;28;36357;-64
2024/01/31 01:51:58;;;;;;;9.02;0.93;;;;;;;-146.25;100.00;52591.25;2095694;28;35581;-63
2024/01/31 01:53:03;;;;;;;11.10;0.90;;;;;;;-146.25;100.00;52575.00;2105031;28;32760;-62
2024/01/31 01:54:07;;;;;;;7.78;0.73;;;;;;;-146.25;100.00;52587.19;2095673;28;36016;-63
2024/01/31 01:55:09;;;;;;;9.95;0.95;;;;;;;-146.25;100.00;52577.03;2096494;28;20072;-63
2024/01/31 01:56:17;;;;;;;9.57;0.82;;;;;;;-146.25;100.00;52579.06;2096122;28;20033;-63
2024/01/31 01:57:19;;;;;;;5.30;0.70;;;;;;;-146.25;100.00;52595.28;2087969;28;35886;-63
2024/01/31 01:58:21;;;;;;;8.32;0.82;;;;;;;-146.25;100.00;52560.81;2088338;28;32029;-63
2024/01/31 01:59:23;;;;;;;8.02;1.02;;;;;;;-146.25;100.00;52558.78;2095519;28;37154;-63
2024/01/31 02:00:26;;;;;;;3.22;0.57;;;;;;;-146.25;100.00;52570.97;2105435;28;20092;-63
2024/01/31 02:01:28;;;;;;;10.15;0.65;;;;;;;-146.25;100.00;52583.13;2095373;28;35686;-63
2024/01/31 02:02:31;;;;;;;8.77;0.82;;;;;;;-146.25;100.00;52564.88;2096112;28;34627;-62
2024/01/31 02:03:33;;;;;;;7.38;0.77;;;;;;;-146.25;100.00;52564.88;2104668;28;34766;-64
2024/01/31 02:04:35;;;;;;;7.40;0.93;;;;;;;-146.25;100.00;52585.16;2104690;28;34774;-63
2024/01/31 02:05:39;;;;;;;7.00;0.70;;;;;;;-146.25;100.00;52554.75;2104985;28;20728;-62
2024/01/31 02:06:45;;;;;;;8.57;0.85;;;;;;;-146.25;100.00;52607.47;2104507;28;32536;-63
2024/01/31 02:07:47;;;;;;;6.50;0.88;;;;;;;-146.25;100.00;52591.25;2104477;28;33984;-63
2024/01/31 02:08:49;;;;;;;8.25;1.13;;;;;;;-146.25;100.00;52560.81;2104476;28;34033;-63
2024/01/31 02:09:54;;;;;;;5.68;0.90;;;;;;;-146.25;100.00;52583.13;2096437;28;20949;-63
2024/01/31 02:10:56;;;;;;;10.88;0.80;;;;;;;-146.25;100.00;52542.56;2096410;28;36830;-64
2024/01/31 02:11:58;;;;;;;6.40;0.85;;;;;;;-146.25;100.00;52570.97;2104270;28;31887;-64
2024/01/31 02:13:03;;;;;;;8.68;0.73;;;;;;;-146.25;100.00;52599.34;2104779;28;20045;-62
2024/01/31 02:14:05;;;;;;;5.70;0.73;;;;;;;-146.25;100.00;52581.09;2104027;28;38140;-64
2024/01/31 02:15:09;;;;;;;9.38;1.00;;;;;;;-146.25;100.00;52552.72;2105092;28;20037;-64
2024/01/31 02:16:12;;;;;;;11.57;0.90;;;;;;;-146.25;100.00;52568.94;2104591;28;35113;-64
2024/01/31 02:17:14;;;;;;;13.07;1.02;;;;;;;-146.25;100.00;52631.78;2104361;28;32891;-63
2024/01/31 02:18:16;;;;;;;11.00;1.17;;;;;;;-146.25;100.00;52587.19;2104562;28;34631;-62
2024/01/31 02:19:18;;;;;;;8.50;0.80;;;;;;;-146.25;100.00;52566.91;2104230;28;36936;-63
2024/01/31 02:20:21;;;;;;;10.50;1.00;;;;;;;-146.25;100.00;52556.75;2104616;28;33163;-63
2024/01/31 02:21:27;;;;;;;9.52;0.90;;;;;;;-146.25;100.00;52577.03;2104159;28;36015;-63
2024/01/31 02:22:29;;;;;;;9.95;1.23;;;;;;;-146.25;100.00;52583.13;2095623;28;35589;-63
2024/01/31 02:23:30;;;;;;;5.90;1.00;;;;;;;-146.25;100.00;52579.06;2096539;28;32663;-63
2024/01/31 02:24:32;;;;;;;9.27;1.05;;;;;;;-146.25;100.00;52556.75;2104620;28;37788;-63
2024/01/31 02:25:34;;;;;;;8.20;1.00;;;;;;;-146.25;100.00;52579.06;2104392;28;29416;-63
2024/01/31 02:26:36;;;;;;;10.32;1.00;;;;;;;-146.25;100.00;52550.69;2104483;28;35682;-64
2024/01/31 02:27:38;;;;;;;10.80;1.08;;;;;;;-146.25;100.00;52583.13;2104105;28;35115;-64
2024/01/31 02:28:40;;;;;;;11.48;0.90;;;;;;;-146.25;100.00;52605.44;2104349;28;30738;-63
2024/01/31 02:29:41;;;;;;;7.28;1.40;;;;;;;-146.25;100.00;52579.06;2104576;28;34767;-62
2024/01/31 02:30:46;;;;;;;7.97;0.47;;;;;;;-146.25;100.00;52613.53;2104326;28;35394;-62
2024/01/31 02:31:47;;;;;;;10.32;0.90;;;;;;;-146.25;100.00;52568.94;2104385;28;26897;-63
2024/01/31 02:32:49;;;;;;;11.20;1.08;;;;;;;-146.25;100.00;52581.09;2104389;28;32010;-63
2024/01/31 02:33:51;;;;;;;10.45;0.77;;;;;;;-146.25;100.00;52589.22;2104755;28;31561;-64
2024/01/31 02:34:53;;;;;;;7.40;0.80;;;;;;;-146.25;100.00;52603.41;2104432;28;34330;-63
2024/01/31 02:35:55;;;;;;;9.70;0.80;;;;;;;-146.25;100.00;52605.44;2104373;28;31194;-64
2024/01/31 02:36:57;;;;;;;5.10;0.60;;;;;;;-146.25;100.00;52587.19;2104378;28;36948;-64
2024/01/31 02:38:02;;;;;;;6.78;0.73;;;;;;;-146.25;100.00;52558.78;2104351;28;32363;-64
2024/01/31 02:39:04;;;;;;;14.18;0.70;;;;;;;-146.25;100.00;52575.00;2103892;28;34150;-64
2024/01/31 02:40:07;;;;;;;14.40;0.88;;;;;;;-146.25;100.00;52548.66;2104469;28;34385;-64
2024/01/31 02:41:11;;;;;;;8.65;1.00;;;;;;;-146.25;100.00;52575.00;2104306;28;31620;-63
2024/01/31 02:42:14;;;;;;;8.35;0.98;;;;;;;-146.25;100.00;52593.25;2104447;28;36647;-63
2024/01/31 02:43:16;;;;;;;6.55;0.73;;;;;;;-146.25;100.00;52564.88;2104274;28;36090;-62
2024/01/31 02:44:22;;;;;;;6.93;0.77;;;;;;;-146.25;100.00;52591.25;2104195;28;30328;-63
2024/01/31 02:45:24;;;;;;;8.68;0.65;;;;;;;-146.25;100.00;52554.75;2103869;28;36340;-63
2024/01/31 02:46:26;;;;;;;7.90;0.90;;;;;;;-146.25;100.00;52595.28;2104583;28;33492;-63
2024/01/31 02:47:28;;;;;;;10.55;0.80;;;;;;;-146.25;100.00;52552.72;2104441;28;34810;-62
2024/01/31 02:48:29;;;;;;;10.55;0.75;;;;;;;-146.25;100.00;52558.78;2103957;28;36558;-63
2024/01/31 02:49:31;;;;;;;8.50;0.60;;;;;;;-146.25;100.00;52583.13;2104569;28;34039;-63
2024/01/31 02:50:34;;;;;;;7.95;0.80;;;;;;;-146.25;100.00;52593.25;2104712;28;20045;-63
2024/01/31 02:51:35;;;;;;;9.00;0.80;;;;;;;-146.25;100.00;52583.13;2104553;28;33843;-63
2024/01/31 02:52:37;;;;;;;5.30;0.50;;;;;;;-146.25;100.00;52558.78;2104789;28;20969;-63
2024/01/31 02:53:39;;;;;;;5.78;1.20;;;;;;;-146.25;100.00;52587.19;2103860;28;37093;-63
2024/01/31 02:54:41;;;;;;;3.50;0.50;;;;;;;-146.25;100.00;52562.84;2104710;28;32478;-63
2024/01/31 02:55:44;;;;;;;11.95;1.08;;;;;;;-146.25;100.00;52550.69;2104293;28;34401;-63
2024/01/31 02:56:46;;;;;;;7.03;0.73;;;;;;;-146.25;100.00;52603.41;2104320;28;34036;-62
2024/01/31 02:57:48;;;;;;;15.18;0.70;;;;;;;-146.25;100.00;52573.00;2103934;28;35741;-63
2024/01/31 02:58:50;;;;;;;9.98;0.65;;;;;;;-146.25;100.00;52577.03;2104001;28;36910;-64
2024/01/31 02:59:52;;;;;;;5.22;0.50;;;;;;;-146.25;100.00;52607.47;2104867;28;34942;-63
2024/01/31 03:00:53;;;;;;;7.38;0.30;;;;;;;-146.25;100.00;52570.97;2104993;28;32720;-63
2024/01/31 03:01:56;;;;;;;10.90;0.60;;;;;;;-146.25;100.00;52579.06;2106330;28;20043;-63
2024/01/31 03:02:58;;;;;;;8.75;0.40;;;;;;;-146.25;100.00;52550.69;2105392;28;36972;-63
2024/01/31 03:04:00;;;;;;;8.18;0.60;;;;;;;-146.25;100.00;52599.34;2105126;28;36502;-64
2024/01/31 03:05:01;;;;;;;6.80;0.47;;;;;;;-146.25;100.00;52583.13;2105966;28;31696;-63
2024/01/31 03:06:04;;;;;;;11.93;0.50;;;;;;;-146.25;100.00;52609.50;2105363;28;34875;-64
2024/01/31 03:07:08;;;;;;;9.05;0.45;;;;;;;-146.25;100.00;52583.13;2106302;28;34384;-63
2024/01/31 03:08:10;;;;;;;11.80;0.60;;;;;;;-146.25;100.00;52548.66;2105749;28;30384;-63
2024/01/31 03:09:12;;;;;;;5.03;0.30;;;;;;;-146.25;100.00;52577.03;2105751;28;34466;-64
2024/01/31 03:10:13;;;;;;;7.20;0.60;;;;;;;-146.25;100.00;52570.97;2105767;28;33883;-64
2024/01/31 03:11:15;;;;;;;10.45;0.95;;;;;;;-146.25;100.00;52552.72;2105287;28;38774;-64
2024/01/31 03:12:17;;;;;;;9.02;0.52;;;;;;;-146.25;100.00;52568.94;2105471;28;34326;-64
2024/01/31 03:13:19;;;;;;;6.80;0.40;;;;;;;-146.25;100.00;52587.19;2105357;28;33389;-63
2024/01/31 03:14:21;;;;;;;9.68;0.70;;;;;;;-146.25;100.00;52562.84;2106396;28;20910;-63
2024/01/31 03:15:22;;;;;;;5.47;0.28;;;;;;;-146.25;100.00;52575.00;2106386;28;20087;-62
2024/01/31 03:16:24;;;;;;;5.50;0.47;;;;;;;-146.25;100.00;52583.13;2105386;28;35308;-64
2024/01/31 03:17:26;;;;;;;9.32;0.57;;;;;;;-146.25;100.00;52562.84;2105772;28;37687;-64
2024/01/31 03:18:28;;;;;;;6.40;0.50;;;;;;;-146.25;100.00;52587.19;2106402;28;20044;-63
2024/01/31 03:19:32;;;;;;;7.10;0.68;;;;;;;-146.25;100.00;52579.06;2105048;28;38224;-62
2024/01/31 03:20:35;;;;;;;5.00;0.40;;;;;;;-146.25;100.00;52619.63;2096284;28;37829;-63
2024/01/31 03:21:37;;;;;;;10.82;0.45;;;;;;;-146.25;100.00;52585.16;2097669;28;20032;-62
2024/01/31 03:22:39;;;;;;;5.57;0.38;;;;;;;-146.25;100.00;52566.91;2105057;28;37780;-63
2024/01/31 03:23:43;;;;;;;7.53;0.40;;;;;;;-146.25;100.00;52564.88;2105782;28;25908;-64
2024/01/31 03:24:44;;;;;;;9.07;0.60;;;;;;;-146.25;100.00;52591.25;2105944;28;20072;-63
2024/01/31 03:25:46;;;;;;;3.30;0.30;;;;;;;-146.25;100.00;52577.03;2105786;28;36437;-63
2024/01/31 03:26:51;;;;;;;6.10;0.38;;;;;;;-146.25;100.00;52597.31;2105893;28;35064;-64
2024/01/31 03:27:53;;;;;;;11.43;0.68;;;;;;;-146.25;100.00;52518.25;2105884;28;20167;-64
2024/01/31 03:28:55;;;;;;;9.15;0.60;;;;;;;-146.25;100.00;52597.31;2105372;28;37436;-63
2024/01/31 03:30:01;;;;;;;6.95;0.30;;;;;;;-146.25;100.00;52562.84;2105651;28;33563;-64
2024/01/31 03:31:03;;;;;;;8.77;0.50;;;;;;;-146.25;100.00;52570.97;2106210;28;21007;-63
2024/01/31 03:32:07;;;;;;;7.60;0.30;;;;;;;-146.25;100.00;52591.25;2105097;28;34605;-64
2024/01/31 03:33:09;;;;;;;4.63;0.32;;;;;;;-146.25;100.00;52575.00;2105123;28;36536;-63
2024/01/31 03:34:11;;;;;;;9.70;0.60;;;;;;;-146.25;100.00;52579.06;2105538;28;36253;-64
2024/01/31 03:35:13;;;;;;;6.45;0.57;;;;;;;-146.25;100.00;52595.28;2105422;28;38551;-64
2024/01/31 03:36:14;;;;;;;5.80;0.50;;;;;;;-146.25;100.00;52570.97;2105225;28;38109;-63
2024/01/31 03:37:16;;;;;;;7.53;0.30;;;;;;;-146.25;100.00;52603.41;2105797;28;33202;-64
2024/01/31 03:38:18;;;;;;;10.10;0.50;;;;;;;-146.25;100.00;52579.06;2105464;28;34835;-64
2024/01/31 03:39:20;;;;;;;10.07;0.47;;;;;;;-146.25;100.00;52566.91;2105058;28;36797;-64
2024/01/31 03:40:22;;;;;;;4.90;0.45;;;;;;;-146.25;100.00;52573.00;2106313;28;20037;-63
2024/01/31 03:41:28;;;;;;;5.75;0.40;;;;;;;-146.25;100.00;52558.78;2105215;28;36763;-63
2024/01/31 03:42:29;;;;;;;7.88;0.43;;;;;;;-146.25;100.00;52554.75;2104887;28;33068;-63
2024/01/31 03:43:31;;;;;;;8.00;0.55;;;;;;;-146.25;100.00;52621.66;2106050;28;20052;-63
2024/01/31 03:44:33;;;;;;;6.75;0.40;;;;;;;-146.25;100.00;52558.78;2105443;28;33527;-64
2024/01/31 03:45:35;;;;;;;8.88;0.47;;;;;;;-146.25;100.00;52566.91;2105297;28;30130;-63
2024/01/31 03:46:36;;;;;;;8.68;0.50;;;;;;;-146.25;100.00;52603.41;2106228;28;20158;-64
2024/01/31 03:47:38;;;;;;;4.85;0.28;;;;;;;-146.25;100.00;52556.75;2105434;28;33485;-64
2024/01/31 03:48:40;;;;;;;8.23;0.47;;;;;;;-146.25;100.00;52589.22;2105525;28;33765;-63
2024/01/31 03:49:42;;;;;;;5.65;0.40;;;;;;;-146.25;100.00;52570.97;2105303;28;39455;-64
2024/01/31 03:50:44;;;;;;;9.15;0.40;;;;;;;-146.25;100.00;52587.19;2106101;28;20041;-63
2024/01/31 03:51:46;;;;;;;7.95;0.50;;;;;;;-146.25;100.00;52613.53;2105395;28;39089;-63
2024/01/31 03:52:48;;;;;;;7.45;0.45;;;;;;;-146.25;100.00;52585.16;2107812;28;34593;-63
2024/01/31 03:53:50;;;;;;;6.28;0.47;;;;;;;-146.25;100.00;52564.88;2113464;28;33439;-63
2024/01/31 03:54:52;;;;;;;5.93;0.40;;;;;;;-146.25;100.00;52595.28;2113913;28;33701;-63
2024/01/31 03:55:54;;;;;;;6.18;0.28;;;;;;;-146.25;100.00;52585.16;2113949;28;30524;-64
2024/01/31 03:56:55;;;;;;;8.43;0.43;;;;;;;-146.25;100.00;52566.91;2105424;28;36481;-64
2024/01/31 03:57:57;;;;;;;8.23;0.40;;;;;;;-146.25;100.00;52562.84;2105109;28;37008;-64
2024/01/31 03:58:59;;;;;;;6.18;0.30;;;;;;;-146.25;100.00;52568.94;2105319;28;33930;-64
2024/01/31 04:00:08;;;;;;;5.30;0.40;;;;;;;-146.25;100.00;52587.19;2104853;28;38063;-64
2024/01/31 04:01:15;;;;;;;6.80;0.40;;;;;;;-146.25;100.00;52579.06;2105952;28;20029;-63
2024/01/31 04:02:17;;;;;;;6.72;0.65;;;;;;;-146.25;100.00;52564.88;2105588;28;34240;-64
2024/01/31 04:03:20;;;;;;;5.03;0.30;;;;;;;-146.25;100.00;52607.47;2105505;28;32816;-64
2024/01/31 04:04:22;;;;;;;5.75;0.30;;;;;;;-146.25;100.00;52568.94;2105186;28;35529;-64
2024/01/31 04:05:24;;;;;;;6.80;0.50;;;;;;;-146.25;100.00;52597.31;2105019;28;33019;-64
2024/01/31 04:06:26;;;;;;;7.90;0.30;;;;;;;-146.25;100.00;52583.13;2106206;28;20033;-64
2024/01/31 04:07:30;;;;;;;6.93;0.50;;;;;;;-146.25;100.00;52609.50;2105506;28;28409;-64
2024/01/31 04:08:32;;;;;;;5.18;0.30;;;;;;;-146.25;100.00;52597.31;2105545;28;35223;-64
2024/01/31 04:09:34;;;;;;;7.72;0.45;;;;;;;-146.25;100.00;52546.63;2105128;28;35477;-64
2024/01/31 04:10:36;;;;;;;4.65;0.40;;;;;;;-146.25;100.00;52575.00;2105016;28;37015;-64
2024/01/31 04:11:38;;;;;;;5.47;0.30;;;;;;;-146.25;100.00;52564.88;2106408;28;20965;-64
2024/01/31 04:12:40;;;;;;;6.10;0.35;;;;;;;-146.25;100.00;52595.28;2104599;28;35843;-64
2024/01/31 04:13:45;;;;;;;8.30;0.30;;;;;;;-146.25;100.00;52591.25;2105405;28;35009;-65
2024/01/31 04:14:47;;;;;;;6.28;0.20;;;;;;;-146.25;100.00;52595.28;2105549;28;30742;-63
2024/01/31 04:15:48;;;;;;;5.10;0.32;;;;;;;-146.25;100.00;52564.88;2105020;28;36429;-64
2024/01/31 04:16:50;;;;;;;5.75;0.30;;;;;;;-146.25;100.00;52585.16;2105672;28;20141;-64
2024/01/31 04:17:52;;;;;;;5.82;0.30;;;;;;;-146.25;100.00;52566.91;2105305;28;34285;-65
2024/01/31 04:18:55;;;;;;;5.30;0.30;;;;;;;-146.25;100.00;52546.63;2105067;28;36023;-64
2024/01/31 04:19:57;;;;;;;7.80;0.40;;;;;;;-146.25;100.00;52575.00;2105357;28;32327;-63
2024/01/31 04:20:59;;;;;;;11.98;0.60;;;;;;;-146.25;100.00;52589.22;2104995;28;36741;-64
2024/01/31 04:22:01;;;;;;;8.00;0.60;;;;;;;-146.25;100.00;52597.31;2105403;28;34136;-64
2024/01/31 04:23:02;;;;;;;7.20;0.47;;;;;;;-146.25;100.00;52548.66;2105561;28;26970;-63
2024/01/31 04:24:04;;;;;;;4.28;0.20;;;;;;;-146.25;100.00;52591.25;2104715;28;40173;-63
2024/01/31 04:25:07;;;;;;;7.82;0.45;;;;;;;-146.25;100.00;52570.97;2106005;28;20033;-64
2024/01/31 04:26:09;;;;;;;7.20;0.30;;;;;;;-146.25;100.00;52564.88;2105369;28;36993;-65
2024/01/31 04:27:10;;;;;;;5.78;0.40;;;;;;;-146.25;100.00;52568.94;2104600;28;34577;-63
2024/01/31 04:28:13;;;;;;;7.53;0.30;;;;;;;-146.25;100.00;52581.09;2105405;28;34853;-64
2024/01/31 04:29:15;;;;;;;5.90;0.50;;;;;;;-146.25;100.00;52599.34;2104710;28;37801;-64
2024/01/31 04:30:18;;;;;;;10.98;0.45;;;;;;;-146.25;100.00;52589.22;2105451;28;31723;-64
2024/01/31 04:31:20;;;;;;;6.10;0.32;;;;;;;-146.25;100.00;52575.00;2105285;28;20111;-64
2024/01/31 04:32:23;;;;;;;5.43;0.30;;;;;;;-146.25;100.00;52591.25;2105387;28;37911;-64
2024/01/31 04:33:25;;;;;;;9.45;0.80;;;;;;;-146.25;100.00;52613.53;2105070;28;34544;-64
2024/01/31 04:34:30;;;;;;;5.80;0.20;;;;;;;-146.25;100.00;52556.75;2105368;28;20040;-64
2024/01/31 04:35:34;;;;;;;7.03;0.63;;;;;;;-146.25;100.00;52581.09;2105515;28;34875;-64
2024/01/31 04:36:36;;;;;;;4.90;0.20;;;;;;;-146.25;100.00;52577.03;2105814;28;20991;-64
2024/01/31 04:37:38;;;;;;;6.03;0.35;;;;;;;-146.25;100.00;52583.13;2105010;28;37336;-64
2024/01/31 04:38:45;;;;;;;3.95;0.30;;;;;;;-146.25;100.00;52583.13;2105080;28;33171;-64
2024/01/31 04:39:50;;;;;;;4.05;0.20;;;;;;;-146.25;100.00;52587.19;2105233;28;33957;-64
2024/01/31 04:40:52;;;;;;;7.65;0.50;;;;;;;-146.25;100.00;52597.31;2105979;28;20898;-64
2024/01/31 04:41:56;;;;;;;6.00;0.50;;;;;;;-146.25;100.00;52593.25;2105091;28;37474;-64
2024/01/31 04:42:57;;;;;;;7.07;0.20;;;;;;;-146.25;100.00;52603.41;2104808;28;34206;-64
2024/01/31 04:43:59;;;;;;;5.50;0.30;;;;;;;-146.25;100.00;52577.03;2104623;28;32776;-64